createdAt,value
2019-03-10T00:00:50.711Z,2.40
2019-03-10T00:03:37.056Z,2.53
2019-03-10T00:06:23.563Z,2.40
2019-03-10T00:09:10.363Z,4.17
2019-03-10T00:11:56.331Z,2.37
2019-03-10T00:14:42.290Z,3.93
2019-03-10T00:17:29.035Z,3.10
2019-03-10T00:20:15.051Z,2.07
2019-03-10T00:23:01.227Z,3.03
2019-03-10T00:25:48.071Z,2.47
2019-03-10T00:28:34.556Z,3.03
2019-03-10T00:31:20.562Z,2.60
2019-03-10T00:34:07.394Z,2.60
2019-03-10T00:36:53.812Z,2.70
2019-03-10T00:40:08.043Z,2.40
2019-03-10T00:43:31.091Z,2.60
2019-03-10T00:46:51.688Z,2.63
2019-03-10T00:50:19.902Z,2.60
2019-03-10T00:53:06.398Z,2.80
2019-03-10T00:55:53.319Z,3.00
2019-03-10T00:58:54.369Z,2.60
2019-03-10T01:01:47.847Z,3.53
2019-03-10T01:04:34.748Z,2.70
2019-03-10T01:07:20.895Z,2.73
2019-03-10T01:10:08.076Z,3.63
2019-03-10T01:12:55.512Z,4.03
2019-03-10T01:15:44.634Z,2.87
2019-03-10T01:18:36.512Z,3.10
2019-03-10T01:21:23.092Z,3.20
2019-03-10T01:24:09.040Z,3.30
2019-03-10T01:26:55.413Z,3.07
2019-03-10T01:29:41.440Z,3.83
2019-03-10T01:33:21.817Z,3.53
2019-03-10T01:36:15.618Z,3.60
2019-03-10T01:39:01.655Z,4.17
2019-03-10T01:41:48.484Z,2.83
2019-03-10T01:44:34.627Z,3.40
2019-03-10T01:47:20.912Z,3.43
2019-03-10T01:50:09.019Z,3.37
2019-03-10T01:52:55.324Z,3.27
2019-03-10T01:55:41.532Z,3.60
2019-03-10T01:58:28.798Z,3.93
2019-03-10T02:01:15.479Z,3.67
2019-03-10T02:04:01.840Z,3.40
2019-03-10T02:06:48.959Z,3.33
2019-03-10T02:09:35.055Z,3.73
2019-03-10T02:12:21.359Z,3.23
2019-03-10T02:15:09.733Z,3.23
2019-03-10T02:17:59.166Z,4.07
2019-03-10T02:20:45.835Z,3.40
2019-03-10T02:23:33.264Z,3.50
2019-03-10T02:26:19.448Z,3.53
2019-03-10T02:29:05.466Z,3.80
2019-03-10T02:31:52.631Z,3.73
2019-03-10T02:34:39.181Z,3.20
2019-03-10T02:37:25.373Z,3.40
2019-03-10T02:40:12.688Z,3.30
2019-03-10T02:42:59.068Z,3.93
2019-03-10T02:45:45.407Z,3.30
2019-03-10T02:48:33.073Z,3.87
2019-03-10T02:51:19.632Z,3.00
2019-03-10T02:54:06.000Z,3.87
2019-03-10T02:56:52.404Z,3.73
2019-03-10T02:59:38.314Z,3.87
2019-03-10T03:02:24.262Z,4.10
2019-03-10T03:05:10.814Z,4.00
2019-03-10T03:07:57.092Z,4.57
2019-03-10T03:10:43.135Z,3.53
2019-03-10T03:13:30.245Z,4.67
2019-03-10T03:16:16.251Z,3.67
2019-03-10T03:19:02.220Z,4.53
2019-03-10T03:21:49.108Z,4.73
2019-03-10T03:24:35.465Z,5.20
2019-03-10T03:27:21.397Z,6.03
2019-03-10T03:30:09.446Z,5.37
2019-03-10T03:32:55.629Z,5.30
2019-03-10T03:35:56.728Z,4.90
2019-03-10T03:38:46.598Z,5.73
2019-03-10T03:41:32.968Z,5.43
2019-03-10T03:44:18.969Z,4.30
2019-03-10T03:47:05.986Z,5.93
2019-03-10T03:49:51.953Z,5.40
2019-03-10T03:52:38.006Z,5.33
2019-03-10T03:55:24.858Z,5.40
2019-03-10T03:58:12.003Z,4.80
2019-03-10T04:01:03.873Z,5.87
2019-03-10T04:03:50.708Z,5.53
2019-03-10T04:06:37.316Z,5.13
2019-03-10T04:09:23.188Z,6.93
2019-03-10T04:12:10.254Z,6.97
2019-03-10T04:14:56.839Z,5.97
2019-03-10T04:17:42.609Z,6.20
2019-03-10T04:20:29.589Z,5.77
2019-03-10T04:23:16.114Z,6.60
2019-03-10T04:26:02.478Z,5.27
2019-03-10T04:28:49.289Z,6.13
2019-03-10T04:31:35.706Z,5.93
2019-03-10T04:34:22.084Z,5.63
2019-03-10T04:37:09.439Z,7.07
2019-03-10T04:39:55.946Z,6.37
2019-03-10T04:42:42.128Z,7.73
2019-03-10T04:45:28.897Z,7.57
2019-03-10T04:48:15.135Z,5.53
2019-03-10T04:51:01.592Z,6.20
2019-03-10T04:53:48.620Z,6.63
2019-03-10T04:56:49.713Z,6.57
2019-03-10T04:59:35.809Z,9.13
2019-03-10T05:02:22.714Z,6.83
2019-03-10T05:05:09.371Z,7.53
2019-03-10T05:07:55.303Z,8.00
2019-03-10T05:10:42.000Z,8.13
2019-03-10T05:13:27.917Z,7.60
2019-03-10T05:16:14.012Z,8.57
2019-03-10T05:19:00.808Z,8.60
2019-03-10T05:21:47.225Z,7.73
2019-03-10T05:24:33.663Z,8.87
2019-03-10T05:27:20.357Z,8.07
2019-03-10T05:30:06.903Z,9.27
2019-03-10T05:32:53.171Z,10.13
2019-03-10T05:35:39.917Z,9.73
2019-03-10T05:38:26.528Z,10.13
2019-03-10T05:41:12.875Z,11.47
2019-03-10T05:43:59.441Z,11.10
2019-03-10T05:46:45.632Z,10.97
2019-03-10T05:49:31.741Z,12.13
2019-03-10T05:52:18.854Z,12.00
2019-03-10T05:55:05.514Z,13.10
2019-03-10T05:57:51.611Z,12.73
2019-03-10T06:00:43.077Z,11.53
2019-03-10T06:03:26.786Z,13.50
2019-03-10T06:06:13.453Z,11.97
2019-03-10T06:09:00.025Z,12.27
2019-03-10T06:11:46.456Z,11.30
2019-03-10T06:14:32.781Z,11.20
2019-03-10T06:17:21.357Z,12.77
2019-03-10T06:20:07.494Z,11.73
2019-03-10T06:22:54.056Z,11.10
2019-03-10T06:25:40.341Z,12.87
2019-03-10T06:28:26.549Z,12.27
2019-03-10T06:31:12.717Z,11.07
2019-03-10T06:33:59.705Z,10.10
2019-03-10T06:36:45.757Z,11.07
2019-03-10T06:39:41.421Z,13.00
2019-03-10T06:42:48.887Z,13.23
2019-03-10T06:45:35.397Z,12.80
2019-03-10T06:48:22.068Z,13.10
2019-03-10T06:51:08.468Z,11.93
2019-03-10T06:53:54.689Z,12.63
2019-03-10T06:56:41.686Z,12.03
2019-03-10T06:59:28.162Z,12.30
2019-03-10T07:02:22.094Z,11.00
2019-03-10T07:05:20.509Z,10.57
2019-03-10T07:08:15.622Z,11.67
2019-03-10T07:11:01.720Z,9.97
2019-03-10T07:13:48.086Z,10.77
2019-03-10T07:16:34.946Z,12.17
2019-03-10T07:19:21.406Z,11.80
2019-03-10T07:22:07.612Z,11.40
2019-03-10T07:24:54.344Z,10.27
2019-03-10T07:27:55.289Z,10.67
2019-03-10T07:31:11.821Z,10.67
2019-03-10T07:34:29.409Z,9.70
2019-03-10T07:37:25.434Z,8.77
2019-03-10T07:40:36.718Z,9.20
2019-03-10T07:43:41.168Z,10.70
2019-03-10T07:46:52.587Z,9.90
2019-03-10T07:49:59.033Z,7.90
2019-03-10T07:53:10.122Z,6.70
2019-03-10T07:56:19.594Z,5.63
2019-03-10T07:59:33.593Z,4.50
2019-03-10T08:02:39.994Z,4.50
2019-03-10T08:05:51.695Z,7.00
2019-03-10T08:08:51.242Z,7.43
2019-03-10T08:11:47.114Z,9.40
2019-03-10T08:14:41.386Z,6.97
2019-03-10T08:17:40.093Z,8.27
2019-03-10T08:20:35.060Z,7.83
2019-03-10T08:23:43.327Z,6.63
2019-03-10T08:26:49.582Z,7.07
2019-03-10T08:30:00.906Z,6.37
2019-03-10T08:33:07.788Z,6.60
2019-03-10T08:36:09.105Z,6.17
2019-03-10T08:39:15.406Z,4.77
2019-03-10T08:42:39.578Z,3.17
2019-03-10T08:45:48.486Z,3.93
2019-03-10T08:48:41.954Z,3.70
2019-03-10T08:51:54.018Z,4.30
2019-03-10T08:54:49.510Z,3.60
2019-03-10T08:58:04.487Z,3.37
2019-03-10T09:01:16.246Z,2.83
2019-03-10T09:04:15.420Z,3.17
2019-03-10T09:07:29.721Z,2.97
2019-03-10T09:10:36.850Z,2.83
2019-03-10T09:13:54.674Z,2.80
2019-03-10T09:17:12.534Z,2.43
2019-03-10T09:20:10.446Z,3.90
2019-03-10T09:23:04.166Z,2.90
2019-03-10T09:26:00.390Z,2.63
2019-03-10T09:29:00.522Z,3.00
2019-03-10T09:32:15.111Z,2.93
2019-03-10T09:35:09.193Z,3.00
2019-03-10T09:38:04.276Z,3.20
2019-03-10T09:41:01.283Z,4.43
2019-03-10T09:44:10.078Z,4.80
2019-03-10T09:47:05.471Z,4.67
2019-03-10T09:50:10.849Z,4.77
2019-03-10T09:53:28.508Z,5.07
2019-03-10T09:56:36.591Z,4.90
2019-03-10T09:59:51.152Z,4.23
2019-03-10T10:03:11.982Z,4.93
2019-03-10T10:06:22.943Z,3.90
2019-03-10T10:09:31.823Z,4.57
2019-03-10T10:12:37.003Z,4.70
2019-03-10T10:15:42.871Z,4.90
2019-03-10T10:18:48.963Z,5.50
2019-03-10T10:22:06.483Z,5.60
2019-03-10T10:25:18.974Z,7.80
2019-03-10T10:28:23.055Z,7.00
2019-03-10T10:31:27.759Z,3.97
2019-03-10T10:34:19.335Z,3.93
2019-03-10T10:37:27.821Z,17.27
2019-03-10T10:40:39.310Z,5.03
2019-03-10T10:43:44.101Z,12.23
2019-03-10T10:46:55.574Z,11.67
2019-03-10T10:49:52.963Z,6.33
2019-03-10T10:53:01.395Z,5.37
2019-03-10T10:56:22.220Z,4.87
2019-03-10T10:59:33.858Z,6.87
2019-03-10T11:02:41.075Z,6.67
2019-03-10T11:05:46.609Z,7.43
2019-03-10T11:08:44.194Z,6.10
2019-03-10T11:11:48.377Z,5.87
2019-03-10T11:14:45.176Z,5.80
2019-03-10T11:17:49.447Z,5.47
2019-03-10T11:20:45.444Z,7.00
2019-03-10T11:24:09.120Z,6.77
2019-03-10T11:27:00.735Z,9.53
2019-03-10T11:29:52.630Z,10.57
2019-03-10T11:32:55.939Z,9.23
2019-03-10T11:36:19.898Z,7.60
2019-03-10T11:39:27.396Z,10.53
2019-03-10T11:42:37.368Z,10.97
2019-03-10T11:45:43.703Z,9.10
2019-03-10T11:48:52.311Z,9.13
2019-03-10T11:52:00.485Z,11.17
2019-03-10T11:54:56.764Z,12.03
2019-03-10T11:57:51.497Z,10.40
2019-03-10T12:00:56.346Z,11.27
2019-03-10T12:03:52.633Z,11.83
2019-03-10T12:06:47.116Z,10.57
2019-03-10T12:09:33.325Z,10.47
2019-03-10T12:12:19.771Z,11.10
2019-03-10T12:15:07.062Z,10.97
2019-03-10T12:17:53.267Z,11.63
2019-03-10T12:20:40.281Z,11.57
2019-03-10T12:23:26.445Z,11.30
2019-03-10T12:26:12.974Z,10.73
2019-03-10T12:28:59.714Z,12.83
2019-03-10T12:31:45.751Z,12.80
2019-03-10T12:34:31.786Z,10.87
2019-03-10T12:37:20.140Z,12.43
2019-03-10T12:40:07.342Z,13.13
2019-03-10T12:42:55.645Z,12.97
2019-03-10T12:45:42.062Z,16.00
2019-03-10T12:48:28.389Z,18.00
2019-03-10T12:51:14.455Z,14.47
2019-03-10T12:54:00.934Z,15.63
2019-03-10T12:56:46.886Z,16.63
2019-03-10T12:59:40.732Z,16.87
2019-03-10T13:02:27.536Z,6.77
2019-03-10T13:05:14.235Z,6.50
2019-03-10T13:08:02.174Z,3.80
2019-03-10T13:10:49.070Z,3.20
2019-03-10T13:13:35.594Z,4.03
2019-03-10T13:16:22.505Z,3.70
2019-03-10T13:22:38.766Z,6.67
2019-03-10T13:25:26.700Z,4.90
2019-03-10T13:28:13.090Z,5.87
2019-03-10T13:30:59.969Z,6.33
2019-03-10T13:33:46.665Z,5.70
2019-03-10T13:36:33.043Z,6.90
2019-03-10T13:39:21.078Z,6.63
2019-03-10T13:42:07.840Z,7.67
2019-03-10T13:44:54.492Z,7.67
2019-03-10T13:47:40.493Z,7.53
2019-03-10T13:50:27.326Z,7.43
2019-03-10T13:53:13.428Z,6.20
2019-03-10T13:56:01.565Z,6.10
2019-03-10T13:58:48.465Z,5.77
2019-03-10T14:01:35.360Z,6.57
2019-03-10T14:04:21.162Z,7.17
2019-03-10T14:07:09.021Z,7.93
2019-03-10T14:09:55.437Z,5.23
2019-03-10T14:12:41.381Z,5.67
2019-03-10T14:15:28.217Z,5.80
2019-03-10T14:18:14.541Z,5.33
2019-03-10T14:21:05.701Z,4.63
2019-03-10T14:23:52.642Z,4.13
2019-03-10T14:26:39.050Z,4.63
2019-03-10T14:29:25.316Z,2.27
2019-03-10T14:32:11.645Z,2.13
2019-03-10T14:34:59.053Z,1.97
2019-03-10T14:37:44.942Z,2.50
2019-03-10T14:40:31.509Z,2.40
2019-03-10T14:43:17.772Z,2.90
2019-03-10T14:46:04.415Z,2.13
2019-03-10T14:48:50.717Z,2.10
2019-03-10T14:51:37.168Z,2.67
2019-03-10T14:54:23.057Z,2.37
2019-03-10T14:57:09.514Z,2.40
2019-03-10T14:59:55.322Z,2.17
2019-03-10T15:02:41.269Z,2.17
2019-03-10T15:05:31.146Z,2.30
2019-03-10T15:08:20.581Z,2.23
2019-03-10T15:11:06.969Z,2.33
2019-03-10T15:13:53.528Z,2.20
2019-03-10T15:16:41.637Z,2.77
2019-03-10T15:19:31.069Z,2.23
2019-03-10T15:22:18.739Z,2.27
2019-03-10T15:25:06.384Z,2.00
2019-03-10T15:27:53.574Z,2.60
2019-03-10T15:30:40.325Z,2.17
2019-03-10T15:33:27.399Z,3.00
2019-03-10T15:36:20.325Z,2.10
2019-03-10T15:39:03.554Z,2.23
2019-03-10T15:41:50.209Z,1.80
2019-03-10T15:44:38.773Z,1.93
2019-03-10T15:47:25.334Z,1.97
2019-03-10T15:50:17.404Z,2.03
2019-03-10T15:53:03.994Z,1.70
2019-03-10T15:55:51.461Z,1.20
2019-03-10T15:58:38.252Z,1.87
2019-03-10T16:01:24.606Z,1.50
2019-03-10T16:04:19.168Z,1.43
2019-03-10T16:07:05.622Z,1.70
2019-03-10T16:09:52.003Z,1.43
2019-03-10T16:12:39.070Z,2.57
2019-03-10T16:15:26.057Z,1.60
2019-03-10T16:18:13.510Z,2.07
2019-03-10T16:21:00.326Z,1.20
2019-03-10T16:23:46.670Z,1.40
2019-03-10T16:26:32.746Z,1.30
2019-03-10T16:29:19.230Z,0.97
2019-03-10T16:32:05.134Z,0.73
2019-03-10T16:34:51.419Z,0.90
2019-03-10T16:37:40.579Z,1.87
2019-03-10T16:40:27.906Z,1.50
2019-03-10T16:43:14.401Z,1.80
2019-03-10T16:46:01.223Z,1.80
2019-03-10T16:48:47.310Z,2.10
2019-03-10T16:51:34.953Z,2.00
2019-03-10T16:54:21.357Z,1.13
2019-03-10T16:57:09.720Z,1.50
2019-03-10T16:59:56.674Z,2.30
2019-03-10T17:02:43.977Z,2.50
2019-03-10T17:05:30.578Z,2.60
2019-03-10T17:08:17.048Z,3.03
2019-03-10T17:11:03.550Z,2.10
2019-03-10T17:13:49.966Z,2.47
2019-03-10T17:16:36.790Z,2.80
2019-03-10T17:19:22.678Z,2.23
2019-03-10T17:22:08.722Z,2.00
2019-03-10T17:24:57.406Z,2.93
2019-03-10T17:27:43.617Z,2.90
2019-03-10T17:30:32.250Z,2.70
2019-03-10T17:33:19.107Z,2.80
2019-03-10T17:36:05.423Z,3.07
2019-03-10T17:38:52.030Z,3.07
2019-03-10T17:41:38.322Z,4.37
2019-03-10T17:44:25.383Z,4.03
2019-03-10T17:47:16.015Z,3.63
2019-03-10T17:50:02.962Z,3.50
2019-03-10T17:52:49.777Z,3.70
2019-03-10T17:55:38.755Z,3.73
2019-03-10T17:58:25.659Z,4.50
2019-03-10T18:01:11.634Z,3.40
2019-03-10T18:03:58.040Z,4.00
2019-03-10T18:06:50.724Z,4.23
2019-03-10T18:10:01.904Z,4.30
2019-03-10T18:12:48.375Z,5.37
2019-03-10T18:15:35.027Z,5.60
2019-03-10T18:18:21.179Z,4.80
2019-03-10T18:21:07.090Z,5.40
2019-03-10T18:23:53.922Z,5.53
2019-03-10T18:26:40.405Z,5.53
2019-03-10T18:29:26.507Z,6.50
2019-03-10T18:32:13.098Z,6.20
2019-03-10T18:34:59.157Z,5.43
2019-03-10T18:37:45.591Z,6.37
2019-03-10T18:40:31.997Z,7.07
2019-03-10T18:43:18.317Z,5.97
2019-03-10T18:46:05.554Z,7.03
2019-03-10T18:48:52.455Z,6.97
2019-03-10T18:51:38.971Z,8.03
2019-03-10T18:54:25.037Z,7.20
2019-03-10T18:57:10.902Z,7.80
2019-03-10T19:00:00.054Z,6.57
2019-03-10T19:02:47.591Z,6.70
2019-03-10T19:05:34.306Z,7.00
2019-03-10T19:08:20.406Z,5.57
2019-03-10T19:11:07.186Z,6.07
2019-03-10T19:13:55.553Z,5.73
2019-03-10T19:16:42.198Z,6.33
2019-03-10T19:19:28.642Z,6.90
2019-03-10T19:22:16.446Z,8.03
2019-03-10T19:25:02.394Z,7.27
2019-03-10T19:27:48.735Z,9.03
2019-03-10T19:30:34.942Z,7.30
2019-03-10T19:33:20.762Z,6.93
2019-03-10T19:36:07.403Z,7.87
2019-03-10T19:38:53.892Z,8.57
2019-03-10T19:41:40.082Z,7.87
2019-03-10T19:44:26.607Z,7.53
2019-03-10T19:47:13.273Z,7.83
2019-03-10T19:49:59.688Z,9.73
2019-03-10T19:52:46.018Z,7.80
2019-03-10T19:55:34.698Z,8.13
2019-03-10T19:58:21.000Z,7.90
2019-03-10T20:01:06.807Z,8.90
2019-03-10T20:03:53.354Z,7.97
2019-03-10T20:06:43.154Z,8.50
2019-03-10T20:09:29.592Z,8.33
2019-03-10T20:12:15.487Z,8.87
2019-03-10T20:21:07.088Z,11.00
2019-03-10T20:23:52.785Z,12.17
2019-03-10T20:26:39.321Z,11.03
2019-03-10T20:29:25.261Z,10.77
2019-03-10T20:32:14.083Z,10.00
2019-03-10T20:34:59.650Z,9.17
2019-03-10T20:37:45.569Z,9.13
2019-03-10T20:40:31.619Z,7.97
2019-03-10T20:43:18.659Z,7.87
2019-03-10T20:46:04.814Z,8.60
2019-03-10T20:48:52.572Z,6.97
2019-03-10T20:51:39.236Z,6.27
2019-03-10T20:54:27.257Z,6.40
2019-03-10T20:57:13.308Z,6.30
2019-03-10T21:00:00.725Z,6.57
2019-03-10T21:02:53.216Z,6.00
2019-03-10T21:05:39.821Z,4.90
2019-03-10T21:08:26.146Z,5.60
2019-03-10T21:11:12.546Z,4.47
2019-03-10T21:13:58.689Z,4.93
2019-03-10T21:16:45.274Z,3.67
2019-03-10T21:19:31.200Z,3.57
2019-03-10T21:22:17.424Z,3.40
2019-03-10T21:25:04.913Z,3.00
2019-03-10T21:27:51.072Z,3.30
2019-03-10T21:31:40.785Z,3.53
2019-03-10T21:37:23.969Z,2.70
2019-03-10T21:40:12.845Z,3.23
2019-03-10T21:42:59.212Z,3.43
2019-03-10T21:45:45.336Z,3.30
2019-03-10T21:48:31.591Z,3.60
2019-03-10T21:51:20.409Z,4.33
2019-03-10T21:54:06.473Z,3.40
2019-03-10T21:56:52.791Z,3.37
2019-03-10T21:59:39.069Z,3.30
2019-03-10T22:02:27.066Z,3.23
2019-03-10T22:05:13.229Z,3.57
2019-03-10T22:07:59.702Z,3.53
2019-03-10T22:10:48.185Z,4.83
2019-03-10T22:13:34.266Z,6.00
2019-03-10T22:16:20.516Z,6.67
2019-03-10T22:19:06.735Z,7.10
2019-03-10T22:21:52.744Z,6.27
2019-03-10T22:24:41.717Z,5.10
2019-03-10T22:27:28.290Z,4.43
2019-03-10T22:30:15.345Z,4.03
2019-03-10T22:33:01.847Z,2.83
2019-03-10T22:35:47.897Z,3.10
2019-03-10T22:38:33.914Z,3.17
2019-03-10T22:41:24.061Z,2.90
2019-03-10T22:44:13.252Z,3.27
2019-03-10T22:46:59.329Z,2.90
2019-03-10T22:49:45.832Z,3.43
2019-03-10T22:52:31.806Z,2.80
2019-03-10T22:55:17.997Z,3.03
2019-03-10T22:58:04.350Z,3.13
2019-03-10T23:00:52.158Z,3.03
2019-03-10T23:03:38.218Z,2.87
2019-03-10T23:06:24.637Z,3.03
2019-03-10T23:09:10.777Z,2.50
2019-03-10T23:11:56.566Z,2.50
2019-03-10T23:14:42.802Z,2.60
2019-03-10T23:17:29.918Z,2.53
2019-03-10T23:20:19.276Z,2.60
2019-03-10T23:23:05.817Z,3.30
2019-03-10T23:25:51.876Z,4.13
2019-03-10T23:28:37.850Z,4.47
2019-03-10T23:31:25.864Z,5.63
2019-03-10T23:34:11.990Z,5.30
2019-03-10T23:36:58.040Z,4.80
2019-03-10T23:39:44.135Z,5.93
2019-03-10T23:42:30.169Z,5.90
2019-03-10T23:45:18.029Z,5.67
2019-03-10T23:48:04.444Z,5.70
2019-03-10T23:50:50.729Z,4.77
2019-03-10T23:53:36.950Z,4.23
2019-03-10T23:56:23.299Z,4.97
2019-03-10T23:59:09.215Z,4.03
